createdAt,value
2019-02-14T02:37:36.983Z,78.63
2019-02-14T02:52:41.844Z,77.90
2019-02-14T02:55:11.636Z,77.04
2019-02-14T03:00:59.041Z,76.42
2019-02-14T04:24:30.218Z,74.22
2019-02-14T04:29:48.090Z,74.84
2019-02-14T04:35:05.712Z,75.42
2019-02-14T04:40:23.790Z,75.04
2019-02-14T04:45:41.322Z,77.25
2019-02-14T04:50:59.514Z,76.87
2019-02-14T04:56:17.366Z,76.83
2019-02-14T05:01:35.113Z,76.92
2019-02-14T05:06:52.802Z,76.35
2019-02-14T05:12:10.701Z,75.18
2019-02-14T05:17:28.606Z,76.45
2019-02-14T05:22:46.155Z,77.01
2019-02-14T05:28:03.383Z,77.62
2019-02-14T05:33:22.182Z,78.41
2019-02-14T05:38:40.406Z,78.04
2019-02-14T05:43:58.161Z,78.08
2019-02-14T05:49:16.063Z,79.48
2019-02-14T05:54:33.292Z,79.04
2019-02-14T05:59:50.950Z,78.48
2019-02-14T06:05:08.521Z,78.47
2019-02-14T06:10:26.221Z,76.54
2019-02-14T06:15:44.164Z,78.73
2019-02-14T06:21:01.745Z,77.05
2019-02-14T06:26:19.400Z,75.55
2019-02-14T06:31:36.649Z,78.41
2019-02-14T06:36:53.987Z,77.74
2019-02-14T06:42:11.643Z,77.33
2019-02-14T06:47:30.035Z,78.17
2019-02-14T06:52:48.155Z,77.92
2019-02-14T06:58:06.178Z,77.24
2019-02-14T07:03:24.258Z,77.18
2019-02-14T07:08:42.087Z,77.05
2019-02-14T07:14:00.651Z,77.19
2019-02-14T07:19:18.112Z,78.27
2019-02-14T07:24:35.908Z,77.91
2019-02-14T07:29:53.206Z,77.28
2019-02-14T07:35:11.711Z,77.09
2019-02-14T07:40:30.340Z,76.75
2019-02-14T07:45:48.223Z,75.73
2019-02-14T07:51:05.986Z,75.76
2019-02-14T07:56:23.473Z,74.73
2019-02-14T08:01:41.298Z,73.21
2019-02-14T08:06:58.946Z,72.75
2019-02-14T08:12:16.405Z,72.61
2019-02-14T08:17:34.114Z,69.83
2019-02-14T08:22:52.343Z,69.55
2019-02-14T08:28:09.934Z,69.24
2019-02-14T08:33:27.194Z,70.21
2019-02-14T08:38:45.113Z,69.14
2019-02-14T08:44:02.966Z,66.96
2019-02-14T08:49:20.737Z,67.21
2019-02-14T08:54:38.524Z,66.24
2019-02-14T08:59:55.993Z,66.37
2019-02-14T09:05:14.146Z,64.66
2019-02-14T09:10:31.971Z,64.84
2019-02-14T09:15:51.064Z,62.13
2019-02-14T09:21:08.858Z,62.81
2019-02-14T09:26:27.083Z,61.02
2019-02-14T09:31:44.931Z,60.03
2019-02-14T09:37:02.697Z,60.76
2019-02-14T09:42:20.691Z,59.23
2019-02-14T09:47:37.985Z,60.27
2019-02-14T09:52:55.875Z,58.92
2019-02-14T09:58:13.626Z,57.14
2019-02-14T10:03:31.184Z,54.70
2019-02-14T10:08:48.985Z,55.74
2019-02-14T10:14:06.371Z,54.35
2019-02-14T10:19:25.170Z,55.06
2019-02-14T10:24:42.457Z,54.94
2019-02-14T10:30:00.629Z,56.75
2019-02-14T10:35:18.378Z,55.77
2019-02-14T10:40:35.710Z,56.04
2019-02-14T10:45:54.300Z,56.39
2019-02-14T10:51:12.510Z,56.34
2019-02-14T10:56:30.238Z,56.96
2019-02-14T11:01:48.021Z,58.21
2019-02-14T11:07:05.382Z,60.43
2019-02-14T11:12:23.074Z,59.23
2019-02-14T11:17:40.509Z,59.49
2019-02-14T11:22:58.640Z,59.18
2019-02-14T11:28:16.367Z,58.13
2019-02-14T11:33:34.207Z,57.52
2019-02-14T11:38:52.080Z,57.73
2019-02-14T11:44:09.554Z,56.89
2019-02-14T11:49:27.981Z,55.65
2019-02-14T11:54:46.348Z,55.77
2019-02-14T12:00:04.724Z,55.27
2019-02-14T12:05:22.959Z,55.10
2019-02-14T12:10:40.290Z,55.12
2019-02-14T12:15:58.733Z,55.11
2019-02-14T12:21:17.205Z,55.16
2019-02-14T12:26:35.379Z,56.00
2019-02-14T12:31:53.742Z,53.26
2019-02-14T12:37:11.345Z,53.24
2019-02-14T12:42:29.493Z,52.27
2019-02-14T12:47:46.870Z,52.07
2019-02-14T12:53:04.538Z,52.07
2019-02-14T12:58:22.024Z,53.18
2019-02-14T13:03:39.408Z,52.76
2019-02-14T13:08:57.216Z,51.74
2019-02-14T13:14:15.955Z,53.85
2019-02-14T13:19:33.311Z,52.64
2019-02-14T13:24:51.017Z,53.80
2019-02-14T13:30:10.077Z,53.37
2019-02-14T13:35:27.407Z,53.31
2019-02-14T13:40:45.085Z,54.79
2019-02-14T13:46:03.416Z,53.79
2019-02-14T13:51:21.726Z,54.25
2019-02-14T13:56:39.678Z,54.58
2019-02-14T14:01:57.707Z,52.21
2019-02-14T14:07:15.526Z,48.35
2019-02-14T14:12:33.477Z,43.98
2019-02-14T14:17:50.937Z,40.76
2019-02-14T14:23:08.682Z,40.75
2019-02-14T14:28:25.872Z,39.06
2019-02-14T14:33:43.934Z,41.19
2019-02-14T14:39:01.580Z,44.92
2019-02-14T14:44:40.854Z,46.41
2019-02-14T14:49:59.950Z,48.97
2019-02-14T14:55:17.636Z,47.10
2019-02-14T15:00:34.994Z,47.92
2019-02-14T15:05:52.542Z,48.46
2019-02-14T15:11:10.413Z,48.63
2019-02-14T15:16:27.771Z,46.97
2019-02-14T15:21:45.646Z,45.55
2019-02-14T15:27:04.281Z,46.54
2019-02-14T15:32:22.877Z,45.71
2019-02-14T15:37:41.999Z,48.79
2019-02-14T15:42:58.579Z,50.76
2019-02-14T15:48:16.118Z,51.71
2019-02-14T15:53:33.752Z,55.60
2019-02-14T15:58:52.329Z,55.54
2019-02-14T16:04:09.516Z,53.32
2019-02-14T16:09:27.053Z,54.00
2019-02-14T16:14:46.281Z,55.26
2019-02-14T16:20:04.648Z,55.32
2019-02-14T16:25:22.582Z,59.44
2019-02-14T16:30:41.242Z,58.47
2019-02-14T16:35:59.812Z,59.30
2019-02-14T16:41:21.043Z,59.49
2019-02-14T16:46:39.277Z,58.90
2019-02-14T16:51:58.040Z,60.06
2019-02-14T16:57:19.016Z,62.25
2019-02-14T17:02:36.975Z,64.35
2019-02-14T17:07:56.319Z,67.95
2019-02-14T17:13:17.065Z,68.19
2019-02-14T17:18:35.568Z,69.61
2019-02-14T17:23:53.552Z,69.46
2019-02-14T17:29:20.185Z,71.44
2019-02-14T17:34:40.280Z,73.86
2019-02-14T17:39:58.380Z,73.66
2019-02-14T17:45:16.209Z,73.09
2019-02-14T17:50:34.373Z,74.01
2019-02-14T17:55:53.435Z,75.64
2019-02-14T18:01:11.777Z,76.32
2019-02-14T18:06:31.009Z,77.30
2019-02-14T18:11:49.092Z,76.53
2019-02-14T18:17:07.220Z,76.17
2019-02-14T18:22:25.783Z,75.37
2019-02-14T18:27:44.110Z,75.10
2019-02-14T18:33:03.384Z,77.12
2019-02-14T18:38:21.405Z,76.39
2019-02-14T18:43:40.261Z,78.19
2019-02-14T18:48:57.792Z,77.29
2019-02-14T18:54:16.395Z,76.56
2019-02-14T18:59:35.365Z,78.27
2019-02-14T19:04:53.591Z,77.83
2019-02-14T19:10:12.556Z,77.94
2019-02-14T19:15:30.132Z,80.34
2019-02-14T19:20:50.056Z,79.07
2019-02-14T19:26:07.805Z,79.22
2019-02-14T19:31:26.307Z,79.67
2019-02-14T19:36:45.116Z,79.89
2019-02-14T19:42:05.026Z,78.84
2019-02-14T19:47:23.107Z,79.80
2019-02-14T19:52:41.739Z,79.79
2019-02-14T19:58:00.042Z,79.67
2019-02-14T20:03:18.839Z,79.85
2019-02-14T20:08:36.809Z,80.24
2019-02-14T20:13:54.663Z,79.40
2019-02-14T20:19:12.748Z,78.80
2019-02-14T20:24:30.581Z,78.55
2019-02-14T20:29:49.574Z,79.09
2019-02-14T20:35:07.865Z,79.18
2019-02-14T20:40:25.500Z,78.80
2019-02-14T20:45:43.964Z,78.81
2019-02-14T20:51:02.314Z,78.77
2019-02-14T20:56:20.249Z,79.15
2019-02-14T21:01:38.672Z,79.06
2019-02-14T21:06:56.892Z,78.92
2019-02-14T21:12:15.405Z,78.55
2019-02-14T21:17:32.866Z,78.92
2019-02-14T21:22:51.307Z,79.36
2019-02-14T21:28:09.166Z,78.88
2019-02-14T21:33:29.369Z,79.28
2019-02-14T21:38:48.354Z,79.87
2019-02-14T21:44:06.088Z,80.40
2019-02-14T21:49:24.538Z,80.05
2019-02-14T21:54:42.416Z,79.54
2019-02-14T22:00:00.105Z,78.61
2019-02-14T22:05:23.918Z,79.94
2019-02-14T22:10:35.606Z,79.77
2019-02-14T22:15:53.393Z,79.90
2019-02-14T22:21:11.035Z,80.68
2019-02-14T22:26:28.882Z,80.26
2019-02-14T22:31:47.143Z,80.36
2019-02-14T22:37:05.203Z,81.09
2019-02-14T22:42:23.136Z,80.95
2019-02-14T22:47:41.469Z,80.31
2019-02-14T22:52:59.020Z,81.18
2019-02-14T22:58:16.942Z,81.63
2019-02-14T23:03:35.355Z,81.92
2019-02-14T23:08:53.270Z,81.60
2019-02-14T23:14:11.446Z,81.59
2019-02-14T23:19:29.394Z,81.83
2019-02-14T23:24:48.585Z,81.50
2019-02-14T23:30:07.641Z,81.86
2019-02-14T23:35:25.166Z,82.30
2019-02-14T23:40:44.097Z,82.66
2019-02-14T23:46:01.894Z,82.23
2019-02-14T23:51:19.659Z,82.86
2019-02-14T23:56:37.024Z,82.91
